Time;durP1;ratioP1;P1;durP2;ratioP2;P2;SDS_P1;SDS_P2;PMS_P1;PMS_P2;Temp;Humidity;BMP_temperature;BMP_pressure;BME280_temperature;BME280_humidity;BME280_pressure;Samples;Min_cycle;Max_cycle;Signal;HPM_P1;HPM_P2
2022/06/22 00:02:29;;;;;;;0.80;0.80;;;;;;;18.43;41.31;98353.69;5089064;28;42876;-73
2022/06/22 00:05:01;;;;;;;2.40;1.17;;;;;;;18.33;41.61;98344.91;5088003;28;42308;-72
2022/06/22 00:07:33;;;;;;;0.90;0.90;;;;;;;18.24;41.64;98331.47;5072797;28;40186;-73
2022/06/22 00:10:07;;;;;;;0.80;0.80;;;;;;;18.24;41.53;98347.56;5073367;28;40396;-73
2022/06/22 00:12:35;;;;;;;0.93;0.80;;;;;;;18.23;41.65;98347.69;5089772;28;43204;-73
2022/06/22 00:15:20;;;;;;;1.40;1.20;;;;;;;18.09;42.09;98326.81;5090497;28;42554;-73
2022/06/22 00:17:49;;;;;;;1.10;1.00;;;;;;;18.02;42.13;98315.91;5090579;28;40689;-73
2022/06/22 00:20:23;;;;;;;1.43;0.93;;;;;;;17.90;41.92;98301.91;5091248;28;42725;-72
2022/06/22 00:22:54;;;;;;;0.80;0.80;;;;;;;18.08;41.64;98341.22;5091466;28;42643;-73
2022/06/22 00:25:27;;;;;;;0.70;0.70;;;;;;;18.06;41.57;98357.44;5088400;28;43037;-72
2022/06/22 00:27:55;;;;;;;1.00;0.90;;;;;;;18.03;41.27;98360.47;5089915;28;38848;-73
2022/06/22 00:30:30;;;;;;;0.60;0.60;;;;;;;18.00;41.46;98350.03;5090219;28;41688;-73
2022/06/22 00:41:26;;;;;;;1.80;0.90;;;;;;;17.87;42.50;98328.16;5091204;28;41467;-73
2022/06/22 00:43:55;;;;;;;1.70;1.10;;;;;;;17.95;42.30;98342.47;5090090;28;41691;-73
2022/06/22 00:46:25;;;;;;;1.03;0.90;;;;;;;17.94;42.77;98334.56;5089775;28;41627;-73
2022/06/22 00:48:54;;;;;;;0.90;0.90;;;;;;;17.89;42.48;98326.19;5090657;28;42663;-73
2022/06/22 00:52:00;;;;;;;0.90;0.90;;;;;;;17.84;42.74;98333.81;5072483;28;42780;-73
2022/06/22 00:54:31;;;;;;;1.20;1.13;;;;;;;17.79;42.82;98317.38;5088039;28;41468;-73
2022/06/22 00:57:08;;;;;;;0.90;0.90;;;;;;;17.73;42.97;98326.03;5089771;28;43744;-73
2022/06/22 00:59:43;;;;;;;0.90;0.90;;;;;;;17.68;43.22;98334.50;5086788;28;43006;-74
2022/06/22 01:02:19;;;;;;;1.00;1.00;;;;;;;17.62;43.64;98332.41;5089982;28;39892;-73
2022/06/22 01:04:52;;;;;;;0.93;0.90;;;;;;;17.57;43.32;98348.94;5089685;28;40550;-73
2022/06/22 01:07:26;;;;;;;1.20;0.90;;;;;;;17.53;43.56;98334.19;5072634;28;43100;-73
2022/06/22 01:10:01;;;;;;;0.87;0.87;;;;;;;17.50;43.79;98331.81;5087994;28;42369;-72
2022/06/22 01:12:39;;;;;;;0.70;0.70;;;;;;;17.47;43.69;98326.75;5089591;28;40079;-72
2022/06/22 01:15:15;;;;;;;0.80;0.80;;;;;;;17.45;43.74;98328.72;5087699;28;42514;-73
2022/06/22 01:17:51;;;;;;;1.03;0.97;;;;;;;17.40;43.85;98317.66;5090351;28;42706;-73
2022/06/22 01:20:28;;;;;;;0.90;0.90;;;;;;;17.42;43.69;98314.84;5072782;28;41273;-73
2022/06/22 01:23:25;;;;;;;1.00;0.90;;;;;;;17.42;44.43;98326.38;5090947;28;40950;-72
2022/06/22 01:25:57;;;;;;;0.83;0.83;;;;;;;17.40;44.51;98339.06;5090027;28;41720;-72
2022/06/22 01:28:27;;;;;;;1.80;1.10;;;;;;;17.37;44.66;98331.34;5092732;28;43186;-73
2022/06/22 01:30:57;;;;;;;2.63;1.40;;;;;;;17.36;44.67;98339.50;5094014;28;42170;-73
2022/06/22 01:33:32;;;;;;;2.57;1.40;;;;;;;17.32;44.63;98328.25;5092662;28;39018;-73
2022/06/22 01:36:06;;;;;;;1.30;1.20;;;;;;;17.30;44.74;98324.91;5091253;28;41676;-73
2022/06/22 01:38:39;;;;;;;1.20;1.10;;;;;;;17.28;44.84;98332.25;5090890;28;43813;-72
2022/06/22 01:41:16;;;;;;;1.40;1.20;;;;;;;17.26;45.01;98328.88;5075280;28;43065;-73
2022/06/22 01:43:50;;;;;;;1.00;1.00;;;;;;;17.26;44.86;98328.03;5092925;28;40292;-72
2022/06/22 01:46:23;;;;;;;1.40;1.30;;;;;;;17.20;44.56;98324.13;5091596;28;42836;-73
2022/06/22 01:48:57;;;;;;;1.77;1.40;;;;;;;17.22;45.05;98332.84;5092752;28;42654;-72
2022/06/22 01:51:33;;;;;;;1.67;1.23;;;;;;;17.19;44.83;98330.47;5091452;28;42278;-73
2022/06/22 01:54:06;;;;;;;1.93;1.20;;;;;;;17.15;45.31;98327.25;5092851;28;40353;-74
2022/06/22 01:56:39;;;;;;;1.10;1.00;;;;;;;17.12;45.52;98326.72;5075440;28;40440;-73
2022/06/22 01:59:21;;;;;;;1.43;1.07;;;;;;;17.01;45.36;98318.88;5092721;28;41755;-73
2022/06/22 02:01:57;;;;;;;0.90;0.90;;;;;;;17.03;45.46;98332.97;5075155;28;40844;-73
2022/06/22 02:04:33;;;;;;;0.70;0.70;;;;;;;16.98;45.69;98329.88;5092208;28;38878;-72
2022/06/22 02:10:23;;;;;;;1.07;0.87;;;;;;;16.84;45.80;98307.97;4983493;28;43776;-73
2022/06/22 02:13:01;;;;;;;0.80;0.80;;;;;;;16.82;46.44;98301.94;5082338;28;42113;-72
2022/06/22 02:15:46;;;;;;;0.90;0.90;;;;;;;16.77;46.58;98306.91;5090489;28;40042;-72
2022/06/22 02:18:17;;;;;;;0.90;0.90;;;;;;;16.74;46.54;98306.34;5093416;28;41459;-73
2022/06/22 02:20:45;;;;;;;0.80;0.80;;;;;;;16.69;47.18;98312.13;5090148;28;42747;-73
2022/06/22 02:23:20;;;;;;;0.90;0.90;;;;;;;16.65;47.30;98307.25;5092283;28;43258;-73
2022/06/22 02:25:57;;;;;;;0.70;0.70;;;;;;;16.59;46.97;98292.59;5091855;28;39145;-73
2022/06/22 02:28:24;;;;;;;1.07;0.97;;;;;;;16.58;47.30;98295.41;5091920;28;41822;-72
2022/06/22 02:30:54;;;;;;;0.90;0.90;;;;;;;16.54;47.14;98294.88;5074939;28;41717;-73
2022/06/22 02:33:22;;;;;;;0.80;0.80;;;;;;;16.46;47.14;98300.09;5091774;28;42745;-73
2022/06/22 02:35:50;;;;;;;1.47;1.10;;;;;;;16.51;47.03;98316.56;5092853;28;40862;-72
2022/06/22 02:38:18;;;;;;;0.77;0.70;;;;;;;16.49;47.12;98315.84;5093188;28;41735;-72
2022/06/22 02:46:25;;;;;;;1.13;0.80;;;;;;;16.36;46.76;98318.84;5091863;28;38883;-72
2022/06/22 02:48:56;;;;;;;1.00;0.80;;;;;;;16.39;46.67;98313.22;5091670;28;41143;-72
2022/06/22 02:51:28;;;;;;;0.70;0.70;;;;;;;16.40;46.77;98319.41;5088839;28;43694;-74
2022/06/22 02:54:00;;;;;;;0.90;0.90;;;;;;;16.39;46.81;98312.38;5089800;28;43289;-73
2022/06/22 02:56:32;;;;;;;0.70;0.70;;;;;;;16.40;46.76;98314.06;5091781;28;38576;-73
2022/06/22 02:59:00;;;;;;;1.00;1.00;;;;;;;16.39;46.60;98323.06;5088472;28;42637;-73
2022/06/22 03:01:32;;;;;;;1.43;0.63;;;;;;;16.38;46.74;98321.38;5092644;28;43838;-73
2022/06/22 03:04:07;;;;;;;0.80;0.70;;;;;;;16.38;46.74;98329.38;5089801;28;42242;-72
2022/06/22 03:06:38;;;;;;;0.67;0.67;;;;;;;16.37;46.50;98320.53;5091515;28;39173;-72
2022/06/22 03:09:09;;;;;;;0.87;0.87;;;;;;;16.37;47.02;98306.31;5088300;28;42791;-72
2022/06/22 03:11:40;;;;;;;0.90;0.90;;;;;;;16.39;47.01;98307.03;5091353;28;43510;-73
2022/06/22 03:14:24;;;;;;;0.70;0.70;;;;;;;16.41;47.23;98305.91;5088298;28;42239;-73
2022/06/22 03:16:56;;;;;;;1.13;0.73;;;;;;;16.44;46.69;98320.81;5091007;28;40584;-72
2022/06/22 03:19:29;;;;;;;1.27;1.20;;;;;;;16.44;47.19;98310.13;5088134;28;41808;-73
2022/06/22 03:21:58;;;;;;;1.27;0.80;;;;;;;16.44;47.61;98310.94;5091249;28;43874;-72
2022/06/22 03:24:37;;;;;;;1.00;0.83;;;;;;;16.47;47.92;98320.50;5090923;28;43568;-73
2022/06/22 03:27:14;;;;;;;0.80;0.80;;;;;;;16.49;48.06;98313.19;5073904;28;42298;-73
2022/06/22 03:29:48;;;;;;;1.70;1.00;;;;;;;16.52;47.72;98319.09;5090925;28;40774;-73
2022/06/22 03:32:25;;;;;;;0.90;0.90;;;;;;;16.55;47.78;98323.31;5091220;28;43506;-72
2022/06/22 03:35:02;;;;;;;1.00;1.00;;;;;;;16.59;47.54;98319.31;5088044;28;42355;-73
2022/06/22 03:37:35;;;;;;;1.80;1.00;;;;;;;16.64;47.23;98330.47;5090498;28;40043;-73
2022/06/22 03:40:08;;;;;;;1.20;0.97;;;;;;;16.68;47.45;98334.53;5089154;28;41704;-72
2022/06/22 03:42:41;;;;;;;1.13;0.80;;;;;;;16.73;47.70;98321.56;5090600;28;42828;-73
2022/06/22 03:45:14;;;;;;;0.83;0.83;;;;;;;16.77;48.44;98306.06;5088989;28;42260;-73
2022/06/22 03:47:51;;;;;;;0.80;0.77;;;;;;;16.82;48.36;98296.59;5090921;28;40100;-72
2022/06/22 03:50:27;;;;;;;0.90;0.90;;;;;;;16.87;48.85;98297.00;5073475;28;41623;-73
2022/06/22 03:53:02;;;;;;;1.30;1.20;;;;;;;16.93;48.68;98305.44;5090134;28;42779;-73
2022/06/22 03:55:34;;;;;;;1.27;1.00;;;;;;;16.97;48.58;98313.00;5087625;28;42243;-73
2022/06/22 03:58:04;;;;;;;1.17;1.10;;;;;;;17.01;48.22;98319.72;5091114;28;40665;-73
2022/06/22 04:00:35;;;;;;;1.00;1.00;;;;;;;17.09;48.32;98313.63;5091666;28;43120;-72
2022/06/22 04:03:06;;;;;;;0.90;0.90;;;;;;;17.16;48.21;98312.03;5073447;28;42167;-72
2022/06/22 04:05:42;;;;;;;1.10;1.00;;;;;;;17.24;48.07;98320.16;5090457;28;41453;-73
2022/06/22 04:08:17;;;;;;;0.80;0.80;;;;;;;17.29;48.03;98315.19;5087591;28;39920;-73
2022/06/22 04:10:49;;;;;;;0.80;0.80;;;;;;;17.40;48.00;98317.66;5088506;28;41637;-73
2022/06/22 04:13:22;;;;;;;1.17;1.07;;;;;;;17.48;48.02;98315.06;5073533;28;41769;-73
2022/06/22 04:15:58;;;;;;;1.00;1.00;;;;;;;17.56;48.01;98320.47;5088227;28;42261;-73
2022/06/22 04:18:32;;;;;;;1.20;1.10;;;;;;;17.60;48.18;98321.84;5090309;28;40134;-73
2022/06/22 04:21:05;;;;;;;0.80;0.80;;;;;;;17.65;48.17;98324.13;5088684;28;41845;-73
2022/06/22 04:23:38;;;;;;;1.10;1.07;;;;;;;17.68;48.92;98321.13;5088570;28;42928;-73
2022/06/22 04:26:11;;;;;;;1.60;0.93;;;;;;;17.72;49.40;98313.63;5089153;28;43061;-72
2022/06/22 04:28:43;;;;;;;1.10;1.00;;;;;;;17.69;49.57;98305.88;5088733;28;39926;-73
2022/06/22 04:31:17;;;;;;;0.97;0.87;;;;;;;17.80;49.36;98335.94;5073286;28;41707;-73
2022/06/22 04:33:49;;;;;;;1.27;1.13;;;;;;;17.83;49.19;98342.84;5088118;28;43521;-73
2022/06/22 04:36:23;;;;;;;1.50;1.40;;;;;;;17.83;49.25;98342.84;5089063;28;42381;-73
2022/06/22 04:38:55;;;;;;;1.20;1.00;;;;;;;17.83;48.65;98354.41;5090174;28;39263;-73
2022/06/22 04:41:29;;;;;;;0.70;0.70;;;;;;;17.84;48.64;98355.25;5089039;28;41857;-73
2022/06/22 04:44:01;;;;;;;0.87;0.87;;;;;;;17.90;48.38;98354.66;5073078;28;44219;-73
2022/06/22 04:46:33;;;;;;;0.90;0.90;;;;;;;17.97;48.46;98355.69;5089544;28;40924;-73
2022/06/22 04:49:32;;;;;;;1.83;0.87;;;;;;;18.03;48.44;98343.53;5088355;28;41353;-73
2022/06/22 04:52:04;;;;;;;1.00;1.00;;;;;;;18.26;48.23;98350.91;5089450;28;41828;-74
2022/06/22 04:54:36;;;;;;;0.90;0.90;;;;;;;18.54;48.17;98348.09;5088087;28;42802;-74
2022/06/22 04:57:07;;;;;;;1.30;0.90;;;;;;;18.84;47.45;98354.81;5089858;28;42435;-73
2022/06/22 04:59:35;;;;;;;1.10;1.00;;;;;;;19.07;46.99;98363.13;5092855;28;40666;-73
2022/06/22 05:02:07;;;;;;;1.30;1.20;;;;;;;19.25;47.00;98374.63;5093022;28;41726;-72
2022/06/22 05:04:39;;;;;;;1.73;1.00;;;;;;;19.36;46.81;98355.53;5093643;28;41667;-73
2022/06/22 05:07:15;;;;;;;0.97;0.90;;;;;;;19.56;46.22;98362.31;5093315;28;42242;-73
2022/06/22 05:13:04;;;;;;;1.17;0.70;;;;;;;19.88;45.75;98366.09;5079259;28;43482;-73
2022/06/22 05:19:55;;;;;;;3.80;1.20;;;;;;;20.22;44.75;98365.91;5092999;28;41055;-73
2022/06/22 05:22:23;;;;;;;0.90;0.90;;;;;;;20.34;44.84;98361.88;5076140;28;38891;-73
2022/06/22 05:24:56;;;;;;;2.20;0.97;;;;;;;20.50;45.15;98361.91;5092857;28;40678;-73
2022/06/22 05:27:27;;;;;;;1.87;0.93;;;;;;;20.68;45.09;98364.38;5091166;28;43553;-73
2022/06/22 05:30:00;;;;;;;1.37;1.27;;;;;;;20.77;44.07;98360.66;5092716;28;42616;-73
2022/06/22 05:32:33;;;;;;;2.10;0.87;;;;;;;20.80;43.87;98360.31;5089843;28;40882;-73
2022/06/22 05:35:08;;;;;;;1.17;0.90;;;;;;;20.82;44.40;98358.28;5092569;28;42734;-73
2022/06/22 05:37:38;;;;;;;1.10;1.00;;;;;;;20.86;44.87;98361.47;5073026;28;44205;-74
2022/06/22 05:40:08;;;;;;;0.97;0.97;;;;;;;20.95;45.08;98371.19;5093645;28;41876;-73
2022/06/22 05:42:38;;;;;;;1.17;1.07;;;;;;;21.08;44.62;98377.72;5091792;28;42262;-72
2022/06/22 05:45:15;;;;;;;0.90;0.90;;;;;;;21.25;44.44;98391.16;5092684;28;40832;-72
2022/06/22 05:47:44;;;;;;;1.57;1.47;;;;;;;21.39;44.23;98390.41;5092642;28;42157;-71
2022/06/22 05:50:24;;;;;;;0.87;0.87;;;;;;;21.45;44.05;98385.16;5092637;28;42195;-71
2022/06/22 05:52:58;;;;;;;0.97;0.97;;;;;;;21.55;43.67;98382.25;5092008;28;39904;-71
2022/06/22 05:55:32;;;;;;;1.07;0.97;;;;;;;21.91;42.64;98396.00;5090578;28;41937;-71
2022/06/22 05:58:06;;;;;;;1.27;1.10;;;;;;;22.34;42.84;98399.94;5089792;28;43842;-71
2022/06/22 06:00:44;;;;;;;1.30;1.20;;;;;;;22.68;41.74;98414.81;5088947;28;42301;-71
2022/06/22 06:03:30;;;;;;;3.10;1.23;;;;;;;22.75;41.77;98415.75;5091215;28;40846;-71
2022/06/22 06:06:03;;;;;;;1.43;1.23;;;;;;;22.51;41.27;98420.34;5089178;28;42759;-71
2022/06/22 06:08:40;;;;;;;1.10;1.00;;;;;;;22.25;42.52;98408.28;5091972;28;42005;-72
2022/06/22 06:11:14;;;;;;;1.80;1.10;;;;;;;22.18;42.22;98408.16;5074528;28;42764;-72
2022/06/22 06:13:46;;;;;;;1.27;1.07;;;;;;;22.30;42.11;98406.69;5091794;28;40921;-72
2022/06/22 06:16:20;;;;;;;2.10;1.40;;;;;;;22.49;41.17;98411.63;5092372;28;40696;-72
2022/06/22 06:18:49;;;;;;;1.67;1.00;;;;;;;22.69;41.05;98421.88;5092039;28;42758;-71
2022/06/22 06:21:20;;;;;;;1.10;1.10;;;;;;;22.97;41.31;98414.88;5093407;28;42794;-71
2022/06/22 06:23:52;;;;;;;1.73;1.00;;;;;;;23.23;40.70;98409.03;5091970;28;39716;-71
2022/06/22 06:29:22;;;;;;;1.10;1.10;;;;;;;23.53;39.76;98431.47;5092301;28;43779;-71
2022/06/22 06:32:02;;;;;;;1.53;1.30;;;;;;;23.70;39.31;98424.84;5089995;28;43186;-72
2022/06/22 06:34:37;;;;;;;1.30;1.20;;;;;;;23.86;39.21;98421.06;5091202;28;39861;-72
2022/06/22 06:37:15;;;;;;;1.10;1.00;;;;;;;23.92;38.92;98421.13;5091962;28;40604;-71
2022/06/22 06:39:46;;;;;;;1.37;1.20;;;;;;;24.08;38.55;98419.22;5091543;28;42698;-72
2022/06/22 06:42:28;;;;;;;1.17;1.07;;;;;;;24.27;38.25;98419.44;5091768;28;41751;-71
2022/06/22 06:44:59;;;;;;;1.27;1.17;;;;;;;24.44;38.48;98428.16;5092047;28;40547;-71
2022/06/22 06:47:33;;;;;;;1.83;1.30;;;;;;;24.73;37.80;98434.44;5089955;28;42695;-71
2022/06/22 06:50:08;;;;;;;3.47;1.10;;;;;;;25.11;37.86;98432.22;5093006;28;43424;-71
2022/06/22 06:53:01;;;;;;;1.23;1.10;;;;;;;25.35;36.84;98440.72;5091430;28;43378;-71
2022/06/22 06:55:35;;;;;;;1.67;1.20;;;;;;;25.51;36.66;98438.72;5087871;28;40704;-72
2022/06/22 06:58:14;;;;;;;1.93;1.20;;;;;;;25.67;36.65;98443.84;5091346;28;40661;-72
2022/06/22 07:00:42;;;;;;;1.97;1.30;;;;;;;25.74;36.62;98447.41;5088398;28;42702;-72
2022/06/22 07:03:19;;;;;;;1.70;1.60;;;;;;;25.74;35.89;98456.38;5092258;28;42377;-72
2022/06/22 07:05:48;;;;;;;1.40;1.30;;;;;;;25.99;34.67;98464.81;5089760;28;40821;-71
2022/06/22 07:08:20;;;;;;;1.77;1.50;;;;;;;26.41;34.11;98446.59;5091504;28;40978;-72
2022/06/22 07:10:52;;;;;;;1.20;1.10;;;;;;;26.86;33.27;98450.38;5088265;28;42916;-72
2022/06/22 07:13:26;;;;;;;2.07;1.20;;;;;;;27.09;33.73;98439.91;5090852;28;41377;-72
2022/06/22 07:15:58;;;;;;;1.47;1.37;;;;;;;26.95;34.04;98432.03;5092470;28;39357;-72
2022/06/22 07:18:30;;;;;;;1.17;1.07;;;;;;;26.78;34.41;98435.13;5090820;28;40972;-72
2022/06/22 07:21:08;;;;;;;1.70;1.53;;;;;;;26.66;34.02;98428.66;5088979;28;43657;-71
2022/06/22 07:23:41;;;;;;;3.03;1.50;;;;;;;26.60;32.41;98450.34;5089960;28;43028;-72
2022/06/22 07:26:18;;;;;;;2.13;1.60;;;;;;;26.58;33.24;98441.63;5089389;28;39972;-72
2022/06/22 07:28:53;;;;;;;2.10;1.40;;;;;;;26.69;33.57;98449.13;5090907;28;41984;-72
2022/06/22 07:31:25;;;;;;;1.60;1.50;;;;;;;27.10;32.99;98443.47;5089103;28;43844;-72
2022/06/22 07:34:01;;;;;;;1.90;1.30;;;;;;;28.24;32.04;98455.47;5090551;28;42208;-72
2022/06/22 07:36:35;;;;;;;1.67;1.57;;;;;;;29.63;29.59;98459.78;5088036;28;40816;-72
2022/06/22 07:39:13;;;;;;;3.23;1.50;;;;;;;30.54;28.43;98475.25;5090918;28;41728;-72
2022/06/22 07:41:41;;;;;;;4.87;1.50;;;;;;;31.17;28.07;98475.47;5088204;28;42515;-72
2022/06/22 07:44:19;;;;;;;1.73;1.50;;;;;;;32.05;26.79;98469.78;5091828;28;42309;-72
2022/06/22 07:46:51;;;;;;;1.60;1.50;;;;;;;32.86;24.70;98491.66;5091095;28;40820;-72
2022/06/22 07:49:25;;;;;;;1.77;1.67;;;;;;;33.24;25.74;98488.19;5091202;28;41614;-72
2022/06/22 07:51:55;;;;;;;1.80;1.70;;;;;;;33.37;24.99;98493.34;5089255;28;42508;-72
2022/06/22 07:54:29;;;;;;;2.03;1.83;;;;;;;33.54;24.61;98488.63;5073472;28;42352;-72
2022/06/22 07:57:06;;;;;;;2.33;1.93;;;;;;;33.82;24.11;98487.69;5087767;28;40122;-72
2022/06/22 07:59:40;;;;;;;1.30;1.20;;;;;;;33.89;24.50;98486.41;5073856;28;41772;-72
2022/06/22 08:02:15;;;;;;;1.70;1.60;;;;;;;34.74;24.26;98493.16;5088564;28;42748;-72
2022/06/22 08:04:48;;;;;;;1.50;1.40;;;;;;;35.82;23.10;98493.75;5091469;28;43441;-72
2022/06/22 08:07:20;;;;;;;1.97;1.87;;;;;;;36.61;22.23;98501.78;5088775;28;40007;-72
2022/06/22 08:09:57;;;;;;;2.20;1.90;;;;;;;37.82;20.67;98513.97;5090044;28;40853;-72
2022/06/22 08:12:32;;;;;;;1.88;1.77;;;;;;;39.21;19.43;98511.00;5090732;28;42089;-73
2022/06/22 08:15:04;;;;;;;1.85;1.60;;;;;;;40.14;18.57;98527.28;5090205;28;42234;-70
2022/06/22 08:17:41;;;;;;;1.83;1.50;;;;;;;41.58;17.70;98531.28;5088382;28;40242;-73
2022/06/22 08:20:12;;;;;;;2.22;1.58;;;;;;;42.93;16.58;98530.75;5090228;28;41067;-73
2022/06/22 08:22:43;;;;;;;1.30;1.30;;;;;;;44.01;15.99;98535.28;5088193;28;42860;-71
2022/06/22 08:25:14;;;;;;;1.27;1.17;;;;;;;44.77;15.39;98524.63;5088501;28;42209;-71
2022/06/22 08:27:41;;;;;;;1.20;1.10;;;;;;;45.36;14.96;98527.75;5088286;28;40244;-71
2022/06/22 08:30:10;;;;;;;1.83;1.40;;;;;;;45.49;14.14;98539.91;5090302;28;41570;-72
2022/06/22 08:32:44;;;;;;;6.90;3.17;;;;;;;45.06;13.81;98538.78;5089974;28;43533;-72
2022/06/22 08:35:19;;;;;;;2.42;1.45;;;;;;;44.13;14.97;98531.88;5093706;28;40840;-71
2022/06/22 08:37:54;;;;;;;1.83;1.33;;;;;;;43.55;15.47;98527.25;5094081;28;39583;-72
2022/06/22 08:40:33;;;;;;;1.42;1.33;;;;;;;43.53;15.35;98521.19;5090761;28;41942;-72
2022/06/22 08:43:09;;;;;;;1.35;1.30;;;;;;;43.70;15.72;98519.34;5076453;28;43536;-72
2022/06/22 08:45:57;;;;;;;1.70;1.20;;;;;;;44.39;15.36;98508.44;5091655;28;43237;-71
2022/06/22 08:48:47;;;;;;;2.05;1.60;;;;;;;45.37;14.29;98515.41;5092641;28;40503;-72
2022/06/22 08:51:33;;;;;;;1.48;1.25;;;;;;;46.04;13.84;98506.31;5090465;28;41799;-72
2022/06/22 08:54:35;;;;;;;1.80;1.70;;;;;;;45.92;13.44;98511.81;5091813;28;43904;-72
2022/06/22 08:57:10;;;;;;;1.15;1.15;;;;;;;45.14;14.32;98505.56;5080571;28;43291;-71
2022/06/22 09:00:06;;;;;;;1.50;1.40;;;;;;;44.47;14.02;98506.84;5094146;28;40884;-71
2022/06/22 09:02:56;;;;;;;1.58;1.30;;;;;;;44.50;13.86;98505.38;5090234;28;41520;-72
2022/06/22 09:05:54;;;;;;;2.25;1.45;;;;;;;44.90;13.33;98506.06;5093153;28;43128;-71
2022/06/22 09:09:02;;;;;;;2.25;1.20;;;;;;;45.08;13.30;98508.53;5093013;28;42006;-71
2022/06/22 09:11:34;;;;;;;1.10;1.10;;;;;;;44.47;12.96;98517.19;5085647;28;39931;-71
2022/06/22 09:14:38;;;;;;;2.40;1.17;;;;;;;44.12;13.07;98514.28;5092052;28;41614;-71
2022/06/22 09:17:28;;;;;;;1.13;1.13;;;;;;;44.18;13.30;98512.16;5091176;28;42740;-72
2022/06/22 09:20:11;;;;;;;1.35;1.20;;;;;;;44.11;12.42;98515.44;5093216;28;42254;-71
2022/06/22 09:22:54;;;;;;;1.92;1.65;;;;;;;44.70;12.90;98513.09;5089920;28;40023;-72
2022/06/22 09:25:28;;;;;;;1.40;1.30;;;;;;;44.72;12.43;98521.97;5092848;28;41805;-71
2022/06/22 09:28:01;;;;;;;1.17;1.10;;;;;;;44.90;12.52;98512.47;5092982;28;42691;-71
2022/06/22 09:31:00;;;;;;;1.13;1.10;;;;;;;45.15;12.07;98518.41;5090915;28;42469;-71
2022/06/22 09:33:47;;;;;;;1.20;1.20;;;;;;;44.78;12.47;98520.69;5093981;28;41745;-72
2022/06/22 09:36:37;;;;;;;1.60;1.50;;;;;;;44.03;13.34;98511.44;5094280;28;41706;-72
2022/06/22 09:39:37;;;;;;;1.63;1.40;;;;;;;43.89;14.13;98498.75;5092752;28;43844;-72
2022/06/22 09:42:32;;;;;;;1.10;1.10;;;;;;;44.49;13.60;98498.97;5091020;28;42429;-72
2022/06/22 09:45:14;;;;;;;1.30;1.27;;;;;;;44.96;12.75;98504.75;5092685;28;40715;-71
2022/06/22 09:48:18;;;;;;;1.60;1.40;;;;;;;45.36;12.63;98506.22;5090474;28;41730;-71
2022/06/22 09:51:14;;;;;;;1.50;1.40;;;;;;;46.01;12.91;98496.63;5092154;28;41941;-71
2022/06/22 09:54:05;;;;;;;1.52;1.20;;;;;;;46.28;11.90;98511.31;5090637;28;43008;-72
2022/06/22 09:56:53;;;;;;;2.05;1.27;;;;;;;45.83;12.23;98516.59;5092665;28;39746;-72
2022/06/22 09:59:50;;;;;;;2.83;1.60;;;;;;;45.97;11.51;98517.25;5092677;28;42337;-72
2022/06/22 10:02:37;;;;;;;1.70;1.60;;;;;;;45.87;12.24;98517.59;5093596;28;42401;-72
2022/06/22 10:05:37;;;;;;;1.75;1.65;;;;;;;45.61;12.13;98515.72;5090464;28;42975;-72
2022/06/22 10:08:24;;;;;;;1.60;1.50;;;;;;;45.09;12.40;98509.34;5089944;28;40902;-72
2022/06/22 10:11:03;;;;;;;1.60;1.50;;;;;;;44.60;13.18;98502.25;5092092;28;42286;-72
2022/06/22 10:14:07;;;;;;;1.77;1.52;;;;;;;44.28;13.18;98495.09;5092325;28;41732;-72
2022/06/22 10:16:47;;;;;;;1.60;1.50;;;;;;;43.59;14.30;98495.66;5092545;28;43316;-71
2022/06/22 10:19:48;;;;;;;2.17;1.70;;;;;;;42.96;14.13;98493.06;5092452;28;40135;-71
2022/06/22 10:22:31;;;;;;;5.10;1.92;;;;;;;42.46;14.45;98492.28;5089209;28;42891;-72
2022/06/22 10:25:17;;;;;;;1.80;1.60;;;;;;;42.02;15.26;98484.59;5091897;28;43177;-72
2022/06/22 10:28:06;;;;;;;1.80;1.70;;;;;;;41.66;16.24;98470.56;5089957;28;43064;-72
2022/06/22 10:30:46;;;;;;;3.22;1.70;;;;;;;41.29;15.52;98480.66;5092176;28;41085;-72
2022/06/22 10:33:41;;;;;;;3.90;2.03;;;;;;;40.82;15.86;98478.91;5091673;28;41805;-71
2022/06/22 10:36:53;;;;;;;2.00;1.80;;;;;;;40.60;16.48;98464.78;5090139;28;43587;-71
2022/06/22 10:39:57;;;;;;;3.70;1.95;;;;;;;40.21;16.72;98463.94;5092144;28;42328;-71
2022/06/22 10:45:42;;;;;;;1.80;1.67;;;;;;;39.38;17.90;98455.19;5091284;28;40926;-72
2022/06/22 10:48:52;;;;;;;1.90;1.80;;;;;;;39.05;17.99;98460.47;5074519;28;44138;-74
2022/06/22 10:51:33;;;;;;;1.83;1.70;;;;;;;38.87;18.59;98454.78;5089476;28;42365;-76
2022/06/22 10:54:28;;;;;;;1.63;1.53;;;;;;;38.76;18.35;98460.41;5074612;28;39712;-75
2022/06/22 10:57:28;;;;;;;1.63;1.53;;;;;;;38.71;18.66;98452.13;5091501;28;41063;-75
2022/06/22 13:56:51;;;;;;;2.65;2.45;;;;;;;45.84;14.08;98378.31;6309634;22;43696;-75
2022/06/22 13:59:24;;;;;;;1.90;1.80;;;;;;;46.81;13.89;98378.91;6282313;22;42219;-75
2022/06/22 14:02:00;;;;;;;1.92;1.83;;;;;;;47.33;13.51;98395.16;6282839;22;39290;-75
2022/06/22 14:04:42;;;;;;;1.85;1.75;;;;;;;46.93;13.76;98378.09;6256802;22;40869;-76
2022/06/22 14:07:14;;;;;;;2.15;2.03;;;;;;;47.35;13.41;98364.78;6282944;22;44122;-77
2022/06/22 14:09:49;;;;;;;2.13;1.80;;;;;;;46.69;13.65;98381.66;6255668;22;44073;-76
2022/06/22 14:12:25;;;;;;;2.58;2.10;;;;;;;45.35;14.42;98384.28;6256974;22;39257;-75
2022/06/22 14:15:03;;;;;;;1.92;1.83;;;;;;;45.57;15.32;98369.25;6255855;22;42610;-76
2022/06/22 14:17:38;;;;;;;1.90;1.70;;;;;;;46.30;13.85;98369.78;6282569;22;41958;-76
2022/06/22 14:20:16;;;;;;;1.95;1.85;;;;;;;46.54;13.88;98373.84;6282120;22;42204;-76
2022/06/22 14:22:51;;;;;;;1.70;1.60;;;;;;;46.65;13.59;98367.50;6282394;22;40663;-76
2022/06/22 14:25:35;;;;;;;2.10;1.90;;;;;;;46.57;13.83;98373.16;6282798;22;42844;-76
2022/06/22 14:28:12;;;;;;;3.97;2.30;;;;;;;45.98;13.92;98368.53;6283231;22;43268;-76
2022/06/22 14:30:50;;;;;;;2.10;2.00;;;;;;;45.63;14.65;98372.66;6257038;22;41315;-76
2022/06/22 14:33:44;;;;;;;2.55;2.35;;;;;;;44.87;14.76;98379.00;6282665;22;39705;-76
2022/06/22 14:36:23;;;;;;;2.15;2.05;;;;;;;43.51;15.57;98365.34;6281672;22;42845;-76
2022/06/22 14:39:01;;;;;;;1.98;1.88;;;;;;;42.37;17.47;98346.56;6256581;22;41842;-75
2022/06/22 14:41:37;;;;;;;2.15;1.85;;;;;;;41.51;17.78;98340.97;6282205;22;41618;-75
2022/06/22 14:44:37;;;;;;;2.28;2.17;;;;;;;41.22;18.34;98327.38;6282748;22;40964;-76
2022/06/22 14:47:20;;;;;;;2.20;2.10;;;;;;;41.35;18.27;98332.09;6281633;22;41940;-76
2022/06/22 14:49:59;;;;;;;2.67;2.47;;;;;;;40.94;18.68;98337.59;6282141;22;42960;-75
2022/06/22 14:52:39;;;;;;;2.30;2.10;;;;;;;40.52;18.38;98335.84;6282627;22;43159;-76
2022/06/22 14:55:16;;;;;;;2.08;1.98;;;;;;;39.93;19.10;98306.78;6281737;22;39929;-75
2022/06/22 14:57:50;;;;;;;2.08;1.98;;;;;;;39.66;19.69;98317.69;6282758;22;40885;-75
2022/06/22 15:00:36;;;;;;;2.63;2.43;;;;;;;39.25;19.32;98312.63;6309738;22;43286;-75
2022/06/22 15:03:19;;;;;;;2.33;2.23;;;;;;;39.07;20.13;98310.63;6308977;22;42501;-75
2022/06/22 15:05:54;;;;;;;3.20;2.63;;;;;;;38.91;19.61;98309.09;6256417;22;40389;-76
2022/06/22 15:08:28;;;;;;;2.50;2.30;;;;;;;38.69;20.16;98313.19;6256214;22;40576;-75
2022/06/22 15:12:56;;;;;;;2.03;1.90;;;;;;;38.68;20.58;98316.25;6281745;22;42258;-75
2022/06/22 15:13:51;;;;;;;2.10;2.00;;;;;;;38.58;20.18;98308.03;6287699;22;42109;-75
2022/06/22 15:16:26;;;;;;;2.23;2.13;;;;;;;38.51;21.08;98302.81;6256434;22;39027;-75
2022/06/22 15:19:01;;;;;;;2.30;2.10;;;;;;;38.26;20.64;98300.25;6282130;22;41193;-75
2022/06/22 15:21:37;;;;;;;4.03;2.53;;;;;;;38.00;21.29;98296.81;6309269;22;42857;-75
2022/06/22 15:24:15;;;;;;;2.33;2.07;;;;;;;37.71;22.23;98282.94;6309619;22;42314;-75
2022/06/22 15:26:49;;;;;;;2.63;2.47;;;;;;;37.42;23.63;98274.50;6232141;22;40710;-76
2022/06/22 15:29:22;;;;;;;2.73;2.50;;;;;;;37.16;23.37;98281.19;6256638;22;41157;-76
2022/06/22 15:31:58;;;;;;;2.57;2.47;;;;;;;36.87;23.67;98276.31;6281933;22;43088;-76
2022/06/22 15:34:37;;;;;;;2.87;2.63;;;;;;;36.67;24.29;98274.41;6256145;22;42103;-76
2022/06/22 15:37:38;;;;;;;2.90;2.60;;;;;;;36.50;24.28;98270.28;6282048;22;39822;-76
2022/06/22 15:40:24;;;;;;;2.60;2.40;;;;;;;36.37;24.51;98274.44;6256140;22;40733;-76
2022/06/22 15:43:18;;;;;;;2.70;2.50;;;;;;;36.22;24.84;98256.00;6256729;22;42166;-76
2022/06/22 15:45:56;;;;;;;4.17;2.70;;;;;;;36.27;25.54;98268.94;6281899;22;42934;-77
2022/06/22 15:48:32;;;;;;;3.13;2.70;;;;;;;36.26;25.04;98256.25;6283057;22;39023;-76
2022/06/22 15:51:20;;;;;;;3.03;2.83;;;;;;;36.20;25.68;98268.38;6257693;22;41795;-76